sensor_id;sensor_type;location;lat;lon;timestamp;temperature;humidity
23550;DHT22;11953;49.010;8.608;2023-02-15T00:01:55;1.70;99.90
23550;DHT22;11953;49.010;8.608;2023-02-15T00:04:43;1.70;99.90
23550;DHT22;11953;49.010;8.608;2023-02-15T00:07:34;1.80;99.90
23550;DHT22;11953;49.010;8.608;2023-02-15T00:10:20;2.00;99.90
23550;DHT22;11953;49.010;8.608;2023-02-15T00:13:08;2.10;99.90
23550;DHT22;11953;49.010;8.608;2023-02-15T00:16:00;2.30;99.90
23550;DHT22;11953;49.010;8.608;2023-02-15T00:18:47;2.20;99.90
23550;DHT22;11953;49.010;8.608;2023-02-15T00:21:35;2.20;99.90
23550;DHT22;11953;49.010;8.608;2023-02-15T00:24:23;2.20;99.90
23550;DHT22;11953;49.010;8.608;2023-02-15T00:27:10;1.90;99.90
23550;DHT22;11953;49.010;8.608;2023-02-15T00:29:57;1.80;99.90
23550;DHT22;11953;49.010;8.608;2023-02-15T00:32:43;1.60;99.90
23550;DHT22;11953;49.010;8.608;2023-02-15T00:35:30;1.50;99.90
23550;DHT22;11953;49.010;8.608;2023-02-15T00:38:17;1.40;99.90
23550;DHT22;11953;49.010;8.608;2023-02-15T00:41:05;1.30;99.90
23550;DHT22;11953;49.010;8.608;2023-02-15T00:43:52;1.20;99.90
23550;DHT22;11953;49.010;8.608;2023-02-15T00:46:39;1.10;99.90
23550;DHT22;11953;49.010;8.608;2023-02-15T00:49:27;1.10;99.90
23550;DHT22;11953;49.010;8.608;2023-02-15T00:52:13;1.20;99.90
23550;DHT22;11953;49.010;8.608;2023-02-15T00:54:59;1.10;99.90
23550;DHT22;11953;49.010;8.608;2023-02-15T00:57:47;1.20;99.90
23550;DHT22;11953;49.010;8.608;2023-02-15T01:00:34;1.10;99.90
23550;DHT22;11953;49.010;8.608;2023-02-15T01:03:21;1.20;99.90
23550;DHT22;11953;49.010;8.608;2023-02-15T01:06:08;1.10;99.90
23550;DHT22;11953;49.010;8.608;2023-02-15T01:08:54;1.20;99.90
23550;DHT22;11953;49.010;8.608;2023-02-15T01:11:40;1.30;99.90
23550;DHT22;11953;49.010;8.608;2023-02-15T01:14:28;1.50;99.90
23550;DHT22;11953;49.010;8.608;2023-02-15T01:17:15;1.60;99.90
23550;DHT22;11953;49.010;8.608;2023-02-15T01:20:01;1.90;99.90
23550;DHT22;11953;49.010;8.608;2023-02-15T01:22:48;1.90;99.90
23550;DHT22;11953;49.010;8.608;2023-02-15T01:25:35;2.00;99.90
23550;DHT22;11953;49.010;8.608;2023-02-15T01:28:22;2.10;99.90
23550;DHT22;11953;49.010;8.608;2023-02-15T01:31:11;2.10;99.90
23550;DHT22;11953;49.010;8.608;2023-02-15T01:33:59;2.10;99.90
23550;DHT22;11953;49.010;8.608;2023-02-15T01:36:45;2.20;99.90
23550;DHT22;11953;49.010;8.608;2023-02-15T01:39:32;2.30;99.90
23550;DHT22;11953;49.010;8.608;2023-02-15T01:42:21;2.40;99.90
23550;DHT22;11953;49.010;8.608;2023-02-15T01:45:19;2.30;99.90
23550;DHT22;11953;49.010;8.608;2023-02-15T01:48:18;2.30;99.90
23550;DHT22;11953;49.010;8.608;2023-02-15T01:51:06;2.30;99.90
23550;DHT22;11953;49.010;8.608;2023-02-15T01:53:57;2.30;99.90
23550;DHT22;11953;49.010;8.608;2023-02-15T01:56:46;2.30;99.90
23550;DHT22;11953;49.010;8.608;2023-02-15T01:59:35;2.30;99.90
23550;DHT22;11953;49.010;8.608;2023-02-15T02:02:24;2.30;99.90
23550;DHT22;11953;49.010;8.608;2023-02-15T02:05:12;2.10;99.90
23550;DHT22;11953;49.010;8.608;2023-02-15T02:08:01;2.10;99.90
23550;DHT22;11953;49.010;8.608;2023-02-15T02:10:49;2.20;99.90
23550;DHT22;11953;49.010;8.608;2023-02-15T02:13:36;2.00;99.90
23550;DHT22;11953;49.010;8.608;2023-02-15T02:16:25;1.70;99.90
23550;DHT22;11953;49.010;8.608;2023-02-15T02:19:46;1.60;99.90
23550;DHT22;11953;49.010;8.608;2023-02-15T02:23:08;1.70;99.90
23550;DHT22;11953;49.010;8.608;2023-02-15T02:26:18;1.50;99.90
23550;DHT22;11953;49.010;8.608;2023-02-15T02:29:36;1.40;99.90
23550;DHT22;11953;49.010;8.608;2023-02-15T02:32:59;1.40;99.90
23550;DHT22;11953;49.010;8.608;2023-02-15T02:35:59;1.40;99.90
23550;DHT22;11953;49.010;8.608;2023-02-15T02:39:04;1.50;99.90
23550;DHT22;11953;49.010;8.608;2023-02-15T02:41:58;1.40;99.90
23550;DHT22;11953;49.010;8.608;2023-02-15T02:44:49;1.30;99.90
23550;DHT22;11953;49.010;8.608;2023-02-15T02:47:43;1.40;99.90
23550;DHT22;11953;49.010;8.608;2023-02-15T02:50:34;1.60;99.90
23550;DHT22;11953;49.010;8.608;2023-02-15T02:53:20;1.60;99.90
23550;DHT22;11953;49.010;8.608;2023-02-15T02:56:16;1.50;99.90
23550;DHT22;11953;49.010;8.608;2023-02-15T02:59:07;1.50;99.90
23550;DHT22;11953;49.010;8.608;2023-02-15T03:02:00;1.40;99.90
23550;DHT22;11953;49.010;8.608;2023-02-15T03:04:53;1.20;99.90
23550;DHT22;11953;49.010;8.608;2023-02-15T03:07:52;1.20;99.90
23550;DHT22;11953;49.010;8.608;2023-02-15T03:10:40;1.10;99.90
23550;DHT22;11953;49.010;8.608;2023-02-15T03:13:28;1.20;99.90
23550;DHT22;11953;49.010;8.608;2023-02-15T03:16:16;1.00;99.90
23550;DHT22;11953;49.010;8.608;2023-02-15T03:19:15;1.10;99.90
23550;DHT22;11953;49.010;8.608;2023-02-15T03:22:07;1.10;99.90
23550;DHT22;11953;49.010;8.608;2023-02-15T03:24:59;1.30;99.90
23550;DHT22;11953;49.010;8.608;2023-02-15T03:27:51;1.30;99.90
23550;DHT22;11953;49.010;8.608;2023-02-15T03:30:42;1.30;99.90
23550;DHT22;11953;49.010;8.608;2023-02-15T03:33:30;1.50;99.90
23550;DHT22;11953;49.010;8.608;2023-02-15T03:36:20;1.60;99.90
23550;DHT22;11953;49.010;8.608;2023-02-15T03:39:14;1.50;99.90
23550;DHT22;11953;49.010;8.608;2023-02-15T03:42:08;1.30;99.90
23550;DHT22;11953;49.010;8.608;2023-02-15T03:44:59;1.20;99.90
23550;DHT22;11953;49.010;8.608;2023-02-15T03:47:50;1.30;99.90
23550;DHT22;11953;49.010;8.608;2023-02-15T03:50:39;1.30;99.90
23550;DHT22;11953;49.010;8.608;2023-02-15T03:53:46;1.40;99.90
23550;DHT22;11953;49.010;8.608;2023-02-15T03:56:34;1.60;99.90
23550;DHT22;11953;49.010;8.608;2023-02-15T03:59:22;1.80;99.90
23550;DHT22;11953;49.010;8.608;2023-02-15T04:02:35;1.70;99.90
23550;DHT22;11953;49.010;8.608;2023-02-15T04:05:24;1.80;99.90
23550;DHT22;11953;49.010;8.608;2023-02-15T04:08:12;1.80;99.90
23550;DHT22;11953;49.010;8.608;2023-02-15T04:10:58;1.80;99.90
23550;DHT22;11953;49.010;8.608;2023-02-15T04:13:45;1.90;99.90
23550;DHT22;11953;49.010;8.608;2023-02-15T04:16:32;1.70;99.90
23550;DHT22;11953;49.010;8.608;2023-02-15T04:19:18;1.90;99.90
23550;DHT22;11953;49.010;8.608;2023-02-15T04:22:23;2.20;99.90
23550;DHT22;11953;49.010;8.608;2023-02-15T04:25:26;2.20;99.90
23550;DHT22;11953;49.010;8.608;2023-02-15T04:28:13;2.20;99.90
23550;DHT22;11953;49.010;8.608;2023-02-15T04:30:59;2.30;99.90
23550;DHT22;11953;49.010;8.608;2023-02-15T04:33:47;2.30;99.90
23550;DHT22;11953;49.010;8.608;2023-02-15T04:36:33;2.20;99.90
23550;DHT22;11953;49.010;8.608;2023-02-15T04:39:20;2.10;99.90
23550;DHT22;11953;49.010;8.608;2023-02-15T04:42:06;1.90;99.90
23550;DHT22;11953;49.010;8.608;2023-02-15T04:44:53;1.50;99.90
23550;DHT22;11953;49.010;8.608;2023-02-15T04:47:40;1.50;99.90
23550;DHT22;11953;49.010;8.608;2023-02-15T04:50:28;1.40;99.90
23550;DHT22;11953;49.010;8.608;2023-02-15T04:53:15;1.50;99.90
23550;DHT22;11953;49.010;8.608;2023-02-15T04:56:02;1.50;99.90
23550;DHT22;11953;49.010;8.608;2023-02-15T04:58:48;1.30;99.90
23550;DHT22;11953;49.010;8.608;2023-02-15T05:01:35;1.30;99.90
23550;DHT22;11953;49.010;8.608;2023-02-15T05:04:21;1.20;99.90
23550;DHT22;11953;49.010;8.608;2023-02-15T05:07:10;1.30;99.90
23550;DHT22;11953;49.010;8.608;2023-02-15T05:09:56;1.40;99.90
23550;DHT22;11953;49.010;8.608;2023-02-15T05:12:43;1.40;99.90
23550;DHT22;11953;49.010;8.608;2023-02-15T05:15:29;1.20;99.90
23550;DHT22;11953;49.010;8.608;2023-02-15T05:18:16;1.00;99.90
23550;DHT22;11953;49.010;8.608;2023-02-15T05:21:02;1.10;99.90
23550;DHT22;11953;49.010;8.608;2023-02-15T05:23:50;1.20;99.90
23550;DHT22;11953;49.010;8.608;2023-02-15T05:26:36;1.30;99.90
23550;DHT22;11953;49.010;8.608;2023-02-15T05:29:40;1.40;99.90
23550;DHT22;11953;49.010;8.608;2023-02-15T05:32:27;1.50;99.90
23550;DHT22;11953;49.010;8.608;2023-02-15T05:35:15;1.50;99.90
23550;DHT22;11953;49.010;8.608;2023-02-15T05:38:02;1.50;99.90
23550;DHT22;11953;49.010;8.608;2023-02-15T05:40:50;1.60;99.90
23550;DHT22;11953;49.010;8.608;2023-02-15T05:43:37;1.50;99.90
23550;DHT22;11953;49.010;8.608;2023-02-15T05:46:24;1.50;99.90
23550;DHT22;11953;49.010;8.608;2023-02-15T05:49:11;1.40;99.90
23550;DHT22;11953;49.010;8.608;2023-02-15T05:51:57;1.50;99.90
23550;DHT22;11953;49.010;8.608;2023-02-15T05:54:43;1.60;99.90
23550;DHT22;11953;49.010;8.608;2023-02-15T05:57:32;1.60;99.90
23550;DHT22;11953;49.010;8.608;2023-02-15T06:00:19;1.60;99.90
23550;DHT22;11953;49.010;8.608;2023-02-15T06:03:06;1.40;99.90
23550;DHT22;11953;49.010;8.608;2023-02-15T06:05:52;1.30;99.90
23550;DHT22;11953;49.010;8.608;2023-02-15T06:08:39;1.20;99.90
23550;DHT22;11953;49.010;8.608;2023-02-15T06:11:25;1.10;99.90
23550;DHT22;11953;49.010;8.608;2023-02-15T06:14:13;1.10;99.90
23550;DHT22;11953;49.010;8.608;2023-02-15T06:17:00;1.10;99.90
23550;DHT22;11953;49.010;8.608;2023-02-15T06:19:46;1.20;99.90
23550;DHT22;11953;49.010;8.608;2023-02-15T06:22:32;1.30;99.90
23550;DHT22;11953;49.010;8.608;2023-02-15T06:25:19;1.40;99.90
23550;DHT22;11953;49.010;8.608;2023-02-15T06:28:06;1.50;99.90
23550;DHT22;11953;49.010;8.608;2023-02-15T06:30:54;1.50;99.90
23550;DHT22;11953;49.010;8.608;2023-02-15T06:33:41;1.60;99.90
23550;DHT22;11953;49.010;8.608;2023-02-15T06:36:28;1.50;99.90
23550;DHT22;11953;49.010;8.608;2023-02-15T06:39:15;1.60;99.90
23550;DHT22;11953;49.010;8.608;2023-02-15T06:42:01;1.50;99.90
23550;DHT22;11953;49.010;8.608;2023-02-15T06:44:48;1.50;99.90
23550;DHT22;11953;49.010;8.608;2023-02-15T06:47:36;1.50;99.90
23550;DHT22;11953;49.010;8.608;2023-02-15T06:50:23;1.60;99.90
23550;DHT22;11953;49.010;8.608;2023-02-15T06:53:10;1.60;99.90
23550;DHT22;11953;49.010;8.608;2023-02-15T06:56:00;1.50;99.90
23550;DHT22;11953;49.010;8.608;2023-02-15T06:58:48;1.40;99.90
23550;DHT22;11953;49.010;8.608;2023-02-15T07:01:35;1.60;99.90
23550;DHT22;11953;49.010;8.608;2023-02-15T07:04:24;1.70;99.90
23550;DHT22;11953;49.010;8.608;2023-02-15T07:07:14;1.50;99.90
23550;DHT22;11953;49.010;8.608;2023-02-15T07:10:00;1.20;99.90
23550;DHT22;11953;49.010;8.608;2023-02-15T07:12:47;1.30;99.90
23550;DHT22;11953;49.010;8.608;2023-02-15T07:15:33;1.40;99.90
23550;DHT22;11953;49.010;8.608;2023-02-15T07:18:19;1.30;99.90
23550;DHT22;11953;49.010;8.608;2023-02-15T07:21:07;1.40;99.90
23550;DHT22;11953;49.010;8.608;2023-02-15T07:23:56;1.40;99.90
23550;DHT22;11953;49.010;8.608;2023-02-15T07:26:43;1.40;99.90
23550;DHT22;11953;49.010;8.608;2023-02-15T07:29:29;1.60;99.90
23550;DHT22;11953;49.010;8.608;2023-02-15T07:32:15;1.60;99.90
23550;DHT22;11953;49.010;8.608;2023-02-15T07:35:02;1.70;99.90
23550;DHT22;11953;49.010;8.608;2023-02-15T07:37:50;1.70;99.90
23550;DHT22;11953;49.010;8.608;2023-02-15T07:40:38;1.60;99.90
23550;DHT22;11953;49.010;8.608;2023-02-15T07:43:25;1.60;99.90
23550;DHT22;11953;49.010;8.608;2023-02-15T07:46:13;1.60;99.90
23550;DHT22;11953;49.010;8.608;2023-02-15T07:49:00;1.50;99.90
23550;DHT22;11953;49.010;8.608;2023-02-15T07:51:47;1.50;99.90
23550;DHT22;11953;49.010;8.608;2023-02-15T07:54:35;1.70;99.90
23550;DHT22;11953;49.010;8.608;2023-02-15T07:57:22;1.70;99.90
23550;DHT22;11953;49.010;8.608;2023-02-15T08:00:10;1.80;99.90
23550;DHT22;11953;49.010;8.608;2023-02-15T08:02:57;1.60;99.90
23550;DHT22;11953;49.010;8.608;2023-02-15T08:06:02;1.60;99.90
23550;DHT22;11953;49.010;8.608;2023-02-15T08:08:49;1.70;99.90
23550;DHT22;11953;49.010;8.608;2023-02-15T08:11:38;1.70;99.90
23550;DHT22;11953;49.010;8.608;2023-02-15T08:14:27;1.60;99.90
23550;DHT22;11953;49.010;8.608;2023-02-15T08:17:14;1.60;99.90
23550;DHT22;11953;49.010;8.608;2023-02-15T08:20:00;1.60;99.90
23550;DHT22;11953;49.010;8.608;2023-02-15T08:22:48;1.70;99.90
23550;DHT22;11953;49.010;8.608;2023-02-15T08:25:34;1.70;99.90
23550;DHT22;11953;49.010;8.608;2023-02-15T08:28:23;1.70;99.90
23550;DHT22;11953;49.010;8.608;2023-02-15T08:31:11;1.60;99.90
23550;DHT22;11953;49.010;8.608;2023-02-15T08:33:58;1.70;99.90
23550;DHT22;11953;49.010;8.608;2023-02-15T08:36:45;1.70;99.90
23550;DHT22;11953;49.010;8.608;2023-02-15T08:39:31;1.70;99.90
23550;DHT22;11953;49.010;8.608;2023-02-15T08:42:18;1.80;99.90
23550;DHT22;11953;49.010;8.608;2023-02-15T08:45:08;1.90;99.90
23550;DHT22;11953;49.010;8.608;2023-02-15T08:47:55;1.60;99.90
23550;DHT22;11953;49.010;8.608;2023-02-15T08:50:41;1.50;99.90
23550;DHT22;11953;49.010;8.608;2023-02-15T08:53:28;1.60;99.90
23550;DHT22;11953;49.010;8.608;2023-02-15T08:56:15;1.80;99.90
23550;DHT22;11953;49.010;8.608;2023-02-15T08:59:03;1.50;99.90
23550;DHT22;11953;49.010;8.608;2023-02-15T09:01:52;1.10;99.90
23550;DHT22;11953;49.010;8.608;2023-02-15T09:04:39;0.70;99.90
23550;DHT22;11953;49.010;8.608;2023-02-15T09:07:25;0.70;99.90
23550;DHT22;11953;49.010;8.608;2023-02-15T09:10:12;1.00;99.90
23550;DHT22;11953;49.010;8.608;2023-02-15T09:12:58;1.20;99.90
23550;DHT22;11953;49.010;8.608;2023-02-15T09:15:45;1.30;99.90
23550;DHT22;11953;49.010;8.608;2023-02-15T09:18:35;1.30;99.90
23550;DHT22;11953;49.010;8.608;2023-02-15T09:21:24;1.40;99.90
23550;DHT22;11953;49.010;8.608;2023-02-15T09:24:12;1.40;99.90
23550;DHT22;11953;49.010;8.608;2023-02-15T09:26:59;1.40;99.90
23550;DHT22;11953;49.010;8.608;2023-02-15T09:29:45;1.30;99.90
23550;DHT22;11953;49.010;8.608;2023-02-15T09:32:32;1.40;99.90
23550;DHT22;11953;49.010;8.608;2023-02-15T09:35:19;1.50;99.90
23550;DHT22;11953;49.010;8.608;2023-02-15T09:38:06;1.70;99.90
23550;DHT22;11953;49.010;8.608;2023-02-15T09:41:05;1.40;99.90
23550;DHT22;11953;49.010;8.608;2023-02-15T09:44:04;1.40;99.90
23550;DHT22;11953;49.010;8.608;2023-02-15T09:47:17;1.30;99.90
23550;DHT22;11953;49.010;8.608;2023-02-15T09:50:12;1.30;99.90
23550;DHT22;11953;49.010;8.608;2023-02-15T09:53:19;1.60;99.90
23550;DHT22;11953;49.010;8.608;2023-02-15T09:56:14;1.80;99.90
23550;DHT22;11953;49.010;8.608;2023-02-15T09:59:11;1.90;99.90
23550;DHT22;11953;49.010;8.608;2023-02-15T10:02:11;2.00;99.90
23550;DHT22;11953;49.010;8.608;2023-02-15T10:05:10;1.80;99.90
23550;DHT22;11953;49.010;8.608;2023-02-15T10:11:25;2.20;99.90
23550;DHT22;11953;49.010;8.608;2023-02-15T10:17:49;2.30;99.90
23550;DHT22;11953;49.010;8.608;2023-02-15T10:20:45;2.30;99.90
23550;DHT22;11953;49.010;8.608;2023-02-15T10:23:43;2.40;99.90
23550;DHT22;11953;49.010;8.608;2023-02-15T10:26:37;2.50;99.90
23550;DHT22;11953;49.010;8.608;2023-02-15T10:29:34;2.60;99.90
23550;DHT22;11953;49.010;8.608;2023-02-15T10:32:23;2.50;99.90
23550;DHT22;11953;49.010;8.608;2023-02-15T10:35:16;2.50;99.90
23550;DHT22;11953;49.010;8.608;2023-02-15T10:38:16;2.60;99.90
23550;DHT22;11953;49.010;8.608;2023-02-15T10:41:18;2.80;99.90
23550;DHT22;11953;49.010;8.608;2023-02-15T10:44:28;2.90;99.90
23550;DHT22;11953;49.010;8.608;2023-02-15T10:47:38;2.90;99.90
23550;DHT22;11953;49.010;8.608;2023-02-15T10:50:44;3.00;99.90
23550;DHT22;11953;49.010;8.608;2023-02-15T10:53:49;2.90;99.90
23550;DHT22;11953;49.010;8.608;2023-02-15T10:56:44;2.90;99.90
23550;DHT22;11953;49.010;8.608;2023-02-15T10:59:50;3.10;99.90
23550;DHT22;11953;49.010;8.608;2023-02-15T11:02:54;3.20;99.90
23550;DHT22;11953;49.010;8.608;2023-02-15T11:05:53;3.20;99.90
23550;DHT22;11953;49.010;8.608;2023-02-15T11:08:45;3.30;99.90
23550;DHT22;11953;49.010;8.608;2023-02-15T11:11:34;3.30;99.90
23550;DHT22;11953;49.010;8.608;2023-02-15T11:14:33;3.20;99.90
23550;DHT22;11953;49.010;8.608;2023-02-15T11:17:25;3.30;99.90
23550;DHT22;11953;49.010;8.608;2023-02-15T11:20:19;3.30;99.90
23550;DHT22;11953;49.010;8.608;2023-02-15T11:23:13;3.50;99.90
23550;DHT22;11953;49.010;8.608;2023-02-15T11:26:04;3.60;99.90
23550;DHT22;11953;49.010;8.608;2023-02-15T11:28:53;3.70;99.90
23550;DHT22;11953;49.010;8.608;2023-02-15T11:31:44;3.70;99.90
23550;DHT22;11953;49.010;8.608;2023-02-15T11:34:35;3.40;99.90
23550;DHT22;11953;49.010;8.608;2023-02-15T11:37:29;3.10;99.90
23550;DHT22;11953;49.010;8.608;2023-02-15T11:40:23;3.20;99.90
23550;DHT22;11953;49.010;8.608;2023-02-15T11:43:14;3.40;99.90
23550;DHT22;11953;49.010;8.608;2023-02-15T11:46:03;3.20;99.90
23550;DHT22;11953;49.010;8.608;2023-02-15T11:48:50;2.70;99.90
23550;DHT22;11953;49.010;8.608;2023-02-15T11:51:38;2.80;99.90
23550;DHT22;11953;49.010;8.608;2023-02-15T11:54:28;2.70;99.90
23550;DHT22;11953;49.010;8.608;2023-02-15T11:57:19;2.70;99.90
23550;DHT22;11953;49.010;8.608;2023-02-15T12:00:16;2.50;99.90
23550;DHT22;11953;49.010;8.608;2023-02-15T12:03:14;2.40;99.90
23550;DHT22;11953;49.010;8.608;2023-02-15T12:06:04;2.50;99.90
23550;DHT22;11953;49.010;8.608;2023-02-15T12:08:58;2.30;99.90
23550;DHT22;11953;49.010;8.608;2023-02-15T12:11:46;2.50;99.90
23550;DHT22;11953;49.010;8.608;2023-02-15T12:14:47;2.60;99.90
23550;DHT22;11953;49.010;8.608;2023-02-15T12:17:38;2.90;99.90
23550;DHT22;11953;49.010;8.608;2023-02-15T12:20:29;3.00;99.90
23550;DHT22;11953;49.010;8.608;2023-02-15T12:23:17;2.90;99.90
23550;DHT22;11953;49.010;8.608;2023-02-15T12:26:06;2.90;99.90
23550;DHT22;11953;49.010;8.608;2023-02-15T12:28:54;3.00;99.90
23550;DHT22;11953;49.010;8.608;2023-02-15T12:31:44;3.10;99.90
23550;DHT22;11953;49.010;8.608;2023-02-15T12:34:35;3.30;99.90
23550;DHT22;11953;49.010;8.608;2023-02-15T12:37:27;3.30;99.90
23550;DHT22;11953;49.010;8.608;2023-02-15T12:40:20;3.20;99.90
23550;DHT22;11953;49.010;8.608;2023-02-15T12:43:25;3.10;99.90
23550;DHT22;11953;49.010;8.608;2023-02-15T12:46:23;3.00;99.90
23550;DHT22;11953;49.010;8.608;2023-02-15T12:49:17;3.10;99.90
23550;DHT22;11953;49.010;8.608;2023-02-15T12:52:22;3.20;99.90
23550;DHT22;11953;49.010;8.608;2023-02-15T12:55:11;3.40;99.90
23550;DHT22;11953;49.010;8.608;2023-02-15T12:58:12;3.40;99.90
23550;DHT22;11953;49.010;8.608;2023-02-15T13:01:09;3.50;99.90
23550;DHT22;11953;49.010;8.608;2023-02-15T13:03:59;3.30;99.90
23550;DHT22;11953;49.010;8.608;2023-02-15T13:06:48;3.60;99.90
23550;DHT22;11953;49.010;8.608;2023-02-15T13:09:38;3.60;99.90
23550;DHT22;11953;49.010;8.608;2023-02-15T13:12:27;3.60;99.90
23550;DHT22;11953;49.010;8.608;2023-02-15T13:15:34;3.90;99.90
23550;DHT22;11953;49.010;8.608;2023-02-15T13:18:30;4.10;99.90
23550;DHT22;11953;49.010;8.608;2023-02-15T13:21:20;4.20;99.90
23550;DHT22;11953;49.010;8.608;2023-02-15T13:24:16;4.20;99.90
23550;DHT22;11953;49.010;8.608;2023-02-15T13:27:03;4.40;99.90
23550;DHT22;11953;49.010;8.608;2023-02-15T13:30:04;4.20;99.90
23550;DHT22;11953;49.010;8.608;2023-02-15T13:33:02;4.10;99.90
23550;DHT22;11953;49.010;8.608;2023-02-15T13:35:58;4.00;99.90
23550;DHT22;11953;49.010;8.608;2023-02-15T13:38:51;3.90;99.90
23550;DHT22;11953;49.010;8.608;2023-02-15T13:41:51;3.90;99.90
23550;DHT22;11953;49.010;8.608;2023-02-15T13:44:58;4.10;99.90
23550;DHT22;11953;49.010;8.608;2023-02-15T13:47:52;4.30;99.90
23550;DHT22;11953;49.010;8.608;2023-02-15T13:50:56;4.20;99.90
23550;DHT22;11953;49.010;8.608;2023-02-15T13:54:02;4.00;99.90
23550;DHT22;11953;49.010;8.608;2023-02-15T13:56:59;4.40;99.90
23550;DHT22;11953;49.010;8.608;2023-02-15T13:59:59;4.60;99.90
23550;DHT22;11953;49.010;8.608;2023-02-15T14:09:43;5.40;99.90
23550;DHT22;11953;49.010;8.608;2023-02-15T14:12:41;5.60;99.90
23550;DHT22;11953;49.010;8.608;2023-02-15T14:15:35;5.70;99.90
23550;DHT22;11953;49.010;8.608;2023-02-15T14:18:29;5.80;99.90
23550;DHT22;11953;49.010;8.608;2023-02-15T14:21:27;5.70;99.90
23550;DHT22;11953;49.010;8.608;2023-02-15T14:24:24;5.80;99.90
23550;DHT22;11953;49.010;8.608;2023-02-15T14:27:21;5.70;99.90
23550;DHT22;11953;49.010;8.608;2023-02-15T14:30:15;5.70;99.90
23550;DHT22;11953;49.010;8.608;2023-02-15T14:33:05;5.60;99.90
23550;DHT22;11953;49.010;8.608;2023-02-15T14:35:53;5.60;99.90
23550;DHT22;11953;49.010;8.608;2023-02-15T14:38:53;5.50;99.90
23550;DHT22;11953;49.010;8.608;2023-02-15T14:41:46;5.30;99.90
23550;DHT22;11953;49.010;8.608;2023-02-15T14:44:37;5.30;99.90
23550;DHT22;11953;49.010;8.608;2023-02-15T14:47:31;5.30;99.90
23550;DHT22;11953;49.010;8.608;2023-02-15T14:50:39;5.30;99.90
23550;DHT22;11953;49.010;8.608;2023-02-15T14:53:34;5.40;99.90
23550;DHT22;11953;49.010;8.608;2023-02-15T14:56:25;5.50;99.90
23550;DHT22;11953;49.010;8.608;2023-02-15T14:59:16;5.60;99.90
23550;DHT22;11953;49.010;8.608;2023-02-15T15:02:12;5.60;99.90
23550;DHT22;11953;49.010;8.608;2023-02-15T15:05:03;5.50;99.90
23550;DHT22;11953;49.010;8.608;2023-02-15T15:07:54;5.50;99.90
23550;DHT22;11953;49.010;8.608;2023-02-15T15:10:46;5.50;99.90
23550;DHT22;11953;49.010;8.608;2023-02-15T15:13:53;5.60;99.90
23550;DHT22;11953;49.010;8.608;2023-02-15T15:16:50;5.50;99.90
23550;DHT22;11953;49.010;8.608;2023-02-15T15:20:06;5.50;99.90
23550;DHT22;11953;49.010;8.608;2023-02-15T15:26:27;5.50;99.90
23550;DHT22;11953;49.010;8.608;2023-02-15T15:29:39;5.50;99.90
23550;DHT22;11953;49.010;8.608;2023-02-15T15:32:27;5.50;99.90
23550;DHT22;11953;49.010;8.608;2023-02-15T15:35:23;5.40;99.90
23550;DHT22;11953;49.010;8.608;2023-02-15T15:38:27;5.40;99.90
23550;DHT22;11953;49.010;8.608;2023-02-15T15:41:29;5.50;99.90
23550;DHT22;11953;49.010;8.608;2023-02-15T15:44:52;5.50;99.90
23550;DHT22;11953;49.010;8.608;2023-02-15T15:47:57;5.40;99.90
23550;DHT22;11953;49.010;8.608;2023-02-15T15:50:53;5.30;99.90
23550;DHT22;11953;49.010;8.608;2023-02-15T15:53:46;5.50;99.90
23550;DHT22;11953;49.010;8.608;2023-02-15T15:56:36;5.40;99.90
23550;DHT22;11953;49.010;8.608;2023-02-15T15:59:25;5.60;99.90
23550;DHT22;11953;49.010;8.608;2023-02-15T16:02:15;5.80;99.90
23550;DHT22;11953;49.010;8.608;2023-02-15T16:05:09;5.80;99.90
23550;DHT22;11953;49.010;8.608;2023-02-15T16:07:56;5.80;99.90
23550;DHT22;11953;49.010;8.608;2023-02-15T16:10:42;5.60;99.90
23550;DHT22;11953;49.010;8.608;2023-02-15T16:13:29;5.50;99.90
23550;DHT22;11953;49.010;8.608;2023-02-15T16:16:21;5.60;99.90
23550;DHT22;11953;49.010;8.608;2023-02-15T16:19:19;5.50;99.90
23550;DHT22;11953;49.010;8.608;2023-02-15T16:22:11;5.50;99.90
23550;DHT22;11953;49.010;8.608;2023-02-15T16:25:14;5.50;99.90
23550;DHT22;11953;49.010;8.608;2023-02-15T16:28:08;5.50;99.90
23550;DHT22;11953;49.010;8.608;2023-02-15T16:31:05;5.50;99.90
23550;DHT22;11953;49.010;8.608;2023-02-15T16:33:56;5.30;99.90
23550;DHT22;11953;49.010;8.608;2023-02-15T16:36:43;5.10;99.90
23550;DHT22;11953;49.010;8.608;2023-02-15T16:39:40;5.10;99.90
23550;DHT22;11953;49.010;8.608;2023-02-15T16:42:27;5.00;99.90
23550;DHT22;11953;49.010;8.608;2023-02-15T16:45:16;5.10;99.90
23550;DHT22;11953;49.010;8.608;2023-02-15T16:48:06;5.10;99.90
23550;DHT22;11953;49.010;8.608;2023-02-15T16:50:56;5.10;99.90
23550;DHT22;11953;49.010;8.608;2023-02-15T16:53:46;4.80;99.90
23550;DHT22;11953;49.010;8.608;2023-02-15T16:56:34;4.40;99.90
23550;DHT22;11953;49.010;8.608;2023-02-15T16:59:33;4.40;99.90
23550;DHT22;11953;49.010;8.608;2023-02-15T17:02:23;4.30;99.90
23550;DHT22;11953;49.010;8.608;2023-02-15T17:05:31;4.10;99.90
23550;DHT22;11953;49.010;8.608;2023-02-15T17:08:23;3.90;99.90
23550;DHT22;11953;49.010;8.608;2023-02-15T17:11:15;3.90;99.90
23550;DHT22;11953;49.010;8.608;2023-02-15T17:14:12;3.70;99.90
23550;DHT22;11953;49.010;8.608;2023-02-15T17:17:05;3.60;99.90
23550;DHT22;11953;49.010;8.608;2023-02-15T17:19:54;3.50;99.90
23550;DHT22;11953;49.010;8.608;2023-02-15T17:22:41;3.20;99.90
23550;DHT22;11953;49.010;8.608;2023-02-15T17:25:35;3.10;99.90
23550;DHT22;11953;49.010;8.608;2023-02-15T17:28:25;3.00;99.90
23550;DHT22;11953;49.010;8.608;2023-02-15T17:31:14;2.90;99.90
23550;DHT22;11953;49.010;8.608;2023-02-15T17:34:03;2.80;99.90
23550;DHT22;11953;49.010;8.608;2023-02-15T17:36:57;2.70;99.90
23550;DHT22;11953;49.010;8.608;2023-02-15T17:39:44;2.60;99.90
23550;DHT22;11953;49.010;8.608;2023-02-15T17:42:31;2.50;99.90
23550;DHT22;11953;49.010;8.608;2023-02-15T17:45:19;2.40;99.90
23550;DHT22;11953;49.010;8.608;2023-02-15T17:48:13;2.40;99.90
23550;DHT22;11953;49.010;8.608;2023-02-15T17:51:03;2.40;99.90
23550;DHT22;11953;49.010;8.608;2023-02-15T17:53:50;2.30;99.90
23550;DHT22;11953;49.010;8.608;2023-02-15T17:56:54;2.20;99.90
23550;DHT22;11953;49.010;8.608;2023-02-15T17:59:44;2.20;99.90
23550;DHT22;11953;49.010;8.608;2023-02-15T18:02:58;2.10;99.90
23550;DHT22;11953;49.010;8.608;2023-02-15T18:06:02;1.90;99.90
23550;DHT22;11953;49.010;8.608;2023-02-15T18:09:10;1.80;99.90
23550;DHT22;11953;49.010;8.608;2023-02-15T18:12:19;1.80;99.90
23550;DHT22;11953;49.010;8.608;2023-02-15T18:15:07;1.70;99.90
23550;DHT22;11953;49.010;8.608;2023-02-15T18:17:58;1.70;99.90
23550;DHT22;11953;49.010;8.608;2023-02-15T18:20:45;1.70;99.90
23550;DHT22;11953;49.010;8.608;2023-02-15T18:23:32;1.80;99.90
23550;DHT22;11953;49.010;8.608;2023-02-15T18:26:20;1.80;99.90
23550;DHT22;11953;49.010;8.608;2023-02-15T18:29:07;1.90;99.90
23550;DHT22;11953;49.010;8.608;2023-02-15T18:31:54;1.90;99.90
23550;DHT22;11953;49.010;8.608;2023-02-15T18:34:43;1.90;99.90
23550;DHT22;11953;49.010;8.608;2023-02-15T18:37:32;2.00;99.90
23550;DHT22;11953;49.010;8.608;2023-02-15T18:40:20;1.90;99.90